sensor_id;sensor_type;location;lat;lon;timestamp;P1;durP1;ratioP1;P2;durP2;ratioP2
2299;SDS011;1158;48.750;9.078;2022-12-18T00:02:17;59.90;;;18.98;;
2299;SDS011;1158;48.750;9.078;2022-12-18T00:04:44;65.80;;;20.45;;
2299;SDS011;1158;48.750;9.078;2022-12-18T00:07:11;62.15;;;20.52;;
2299;SDS011;1158;48.750;9.078;2022-12-18T00:09:37;61.28;;;21.58;;
2299;SDS011;1158;48.750;9.078;2022-12-18T00:12:04;46.65;;;19.67;;
2299;SDS011;1158;48.750;9.078;2022-12-18T00:14:31;49.28;;;17.38;;
2299;SDS011;1158;48.750;9.078;2022-12-18T00:17:00;47.25;;;17.40;;
2299;SDS011;1158;48.750;9.078;2022-12-18T00:19:27;42.53;;;17.25;;
2299;SDS011;1158;48.750;9.078;2022-12-18T00:21:54;46.42;;;17.88;;
2299;SDS011;1158;48.750;9.078;2022-12-18T00:24:21;48.33;;;19.38;;
2299;SDS011;1158;48.750;9.078;2022-12-18T00:26:48;54.22;;;20.95;;
2299;SDS011;1158;48.750;9.078;2022-12-18T00:29:15;55.13;;;18.65;;
2299;SDS011;1158;48.750;9.078;2022-12-18T00:31:42;60.30;;;19.85;;
2299;SDS011;1158;48.750;9.078;2022-12-18T00:34:11;43.70;;;17.90;;
2299;SDS011;1158;48.750;9.078;2022-12-18T00:36:38;36.50;;;16.38;;
2299;SDS011;1158;48.750;9.078;2022-12-18T00:39:05;43.78;;;17.77;;
2299;SDS011;1158;48.750;9.078;2022-12-18T00:41:32;59.97;;;19.40;;
2299;SDS011;1158;48.750;9.078;2022-12-18T00:44:17;44.28;;;16.77;;
2299;SDS011;1158;48.750;9.078;2022-12-18T00:46:45;43.58;;;17.95;;
2299;SDS011;1158;48.750;9.078;2022-12-18T00:49:14;41.22;;;17.80;;
2299;SDS011;1158;48.750;9.078;2022-12-18T00:51:42;47.17;;;16.80;;
2299;SDS011;1158;48.750;9.078;2022-12-18T00:54:09;49.05;;;17.00;;
2299;SDS011;1158;48.750;9.078;2022-12-18T00:56:36;43.40;;;17.33;;
2299;SDS011;1158;48.750;9.078;2022-12-18T00:59:03;41.55;;;16.23;;
2299;SDS011;1158;48.750;9.078;2022-12-18T01:01:30;49.47;;;17.85;;
2299;SDS011;1158;48.750;9.078;2022-12-18T01:03:59;36.63;;;14.88;;
2299;SDS011;1158;48.750;9.078;2022-12-18T01:06:27;43.83;;;17.67;;
2299;SDS011;1158;48.750;9.078;2022-12-18T01:08:55;49.20;;;17.45;;
2299;SDS011;1158;48.750;9.078;2022-12-18T01:11:22;39.20;;;14.85;;
2299;SDS011;1158;48.750;9.078;2022-12-18T01:13:48;40.03;;;15.65;;
2299;SDS011;1158;48.750;9.078;2022-12-18T01:16:17;41.80;;;15.68;;
2299;SDS011;1158;48.750;9.078;2022-12-18T01:18:44;38.72;;;17.15;;
2299;SDS011;1158;48.750;9.078;2022-12-18T01:21:12;45.90;;;16.98;;
2299;SDS011;1158;48.750;9.078;2022-12-18T01:23:41;37.15;;;16.17;;
2299;SDS011;1158;48.750;9.078;2022-12-18T01:26:12;41.70;;;16.48;;
2299;SDS011;1158;48.750;9.078;2022-12-18T01:28:40;41.63;;;15.98;;
2299;SDS011;1158;48.750;9.078;2022-12-18T01:31:09;40.88;;;16.25;;
2299;SDS011;1158;48.750;9.078;2022-12-18T01:33:38;35.78;;;16.77;;
2299;SDS011;1158;48.750;9.078;2022-12-18T01:36:04;39.97;;;16.25;;
2299;SDS011;1158;48.750;9.078;2022-12-18T01:38:31;39.40;;;16.35;;
2299;SDS011;1158;48.750;9.078;2022-12-18T01:41:00;39.33;;;16.05;;
2299;SDS011;1158;48.750;9.078;2022-12-18T01:43:40;42.88;;;16.73;;
2299;SDS011;1158;48.750;9.078;2022-12-18T01:46:12;45.97;;;16.73;;
2299;SDS011;1158;48.750;9.078;2022-12-18T01:48:39;45.95;;;18.23;;
2299;SDS011;1158;48.750;9.078;2022-12-18T01:51:07;40.90;;;17.60;;
2299;SDS011;1158;48.750;9.078;2022-12-18T01:53:35;47.55;;;18.60;;
2299;SDS011;1158;48.750;9.078;2022-12-18T01:56:04;47.78;;;17.70;;
2299;SDS011;1158;48.750;9.078;2022-12-18T01:58:32;49.58;;;19.33;;
2299;SDS011;1158;48.750;9.078;2022-12-18T02:01:04;43.08;;;18.25;;
2299;SDS011;1158;48.750;9.078;2022-12-18T02:03:31;36.72;;;16.42;;
2299;SDS011;1158;48.750;9.078;2022-12-18T02:05:59;45.10;;;17.33;;
2299;SDS011;1158;48.750;9.078;2022-12-18T02:08:34;57.58;;;18.90;;
2299;SDS011;1158;48.750;9.078;2022-12-18T02:11:08;52.28;;;18.17;;
2299;SDS011;1158;48.750;9.078;2022-12-18T02:13:45;46.63;;;20.35;;
2299;SDS011;1158;48.750;9.078;2022-12-18T02:16:19;46.65;;;19.63;;
2299;SDS011;1158;48.750;9.078;2022-12-18T02:18:50;49.15;;;18.42;;
2299;SDS011;1158;48.750;9.078;2022-12-18T02:21:24;45.13;;;18.35;;
2299;SDS011;1158;48.750;9.078;2022-12-18T02:24:02;41.17;;;17.45;;
2299;SDS011;1158;48.750;9.078;2022-12-18T02:26:43;45.72;;;17.55;;
2299;SDS011;1158;48.750;9.078;2022-12-18T02:29:15;53.53;;;18.88;;
2299;SDS011;1158;48.750;9.078;2022-12-18T02:31:47;42.63;;;15.93;;
2299;SDS011;1158;48.750;9.078;2022-12-18T02:34:18;43.15;;;18.70;;
2299;SDS011;1158;48.750;9.078;2022-12-18T02:36:48;46.30;;;16.83;;
2299;SDS011;1158;48.750;9.078;2022-12-18T02:39:17;45.55;;;18.65;;
2299;SDS011;1158;48.750;9.078;2022-12-18T02:41:49;47.22;;;18.60;;
2299;SDS011;1158;48.750;9.078;2022-12-18T02:44:16;41.60;;;17.15;;
2299;SDS011;1158;48.750;9.078;2022-12-18T02:46:43;43.45;;;17.25;;
2299;SDS011;1158;48.750;9.078;2022-12-18T02:49:15;44.58;;;19.75;;
2299;SDS011;1158;48.750;9.078;2022-12-18T02:51:53;49.00;;;18.60;;
2299;SDS011;1158;48.750;9.078;2022-12-18T02:54:31;46.78;;;18.90;;
2299;SDS011;1158;48.750;9.078;2022-12-18T02:57:10;37.63;;;16.88;;
2299;SDS011;1158;48.750;9.078;2022-12-18T02:59:45;47.22;;;18.30;;
2299;SDS011;1158;48.750;9.078;2022-12-18T03:02:19;54.92;;;20.10;;
2299;SDS011;1158;48.750;9.078;2022-12-18T03:04:49;41.78;;;17.73;;
2299;SDS011;1158;48.750;9.078;2022-12-18T03:07:26;53.22;;;19.35;;
2299;SDS011;1158;48.750;9.078;2022-12-18T03:09:59;49.72;;;20.17;;
2299;SDS011;1158;48.750;9.078;2022-12-18T03:12:30;44.50;;;18.90;;
2299;SDS011;1158;48.750;9.078;2022-12-18T03:15:01;55.78;;;20.23;;
2299;SDS011;1158;48.750;9.078;2022-12-18T03:17:31;50.83;;;18.85;;
2299;SDS011;1158;48.750;9.078;2022-12-18T03:20:00;44.92;;;20.73;;
2299;SDS011;1158;48.750;9.078;2022-12-18T03:22:32;42.20;;;20.55;;
2299;SDS011;1158;48.750;9.078;2022-12-18T03:25:00;52.28;;;18.75;;
2299;SDS011;1158;48.750;9.078;2022-12-18T03:27:31;48.65;;;19.25;;
2299;SDS011;1158;48.750;9.078;2022-12-18T03:30:03;50.00;;;20.55;;
2299;SDS011;1158;48.750;9.078;2022-12-18T03:35:03;44.55;;;19.02;;
2299;SDS011;1158;48.750;9.078;2022-12-18T03:37:31;44.40;;;19.00;;
2299;SDS011;1158;48.750;9.078;2022-12-18T03:39:58;49.33;;;19.27;;
2299;SDS011;1158;48.750;9.078;2022-12-18T03:42:25;50.35;;;20.50;;
2299;SDS011;1158;48.750;9.078;2022-12-18T03:45:00;46.93;;;19.07;;
2299;SDS011;1158;48.750;9.078;2022-12-18T03:47:35;49.60;;;21.35;;
2299;SDS011;1158;48.750;9.078;2022-12-18T03:50:10;43.55;;;18.48;;
2299;SDS011;1158;48.750;9.078;2022-12-18T03:52:40;50.63;;;18.30;;
2299;SDS011;1158;48.750;9.078;2022-12-18T03:55:12;51.88;;;20.05;;
2299;SDS011;1158;48.750;9.078;2022-12-18T03:57:39;41.90;;;19.45;;
2299;SDS011;1158;48.750;9.078;2022-12-18T04:00:10;38.17;;;17.95;;
2299;SDS011;1158;48.750;9.078;2022-12-18T04:02:39;39.70;;;17.02;;
2299;SDS011;1158;48.750;9.078;2022-12-18T04:05:10;42.28;;;16.73;;
2299;SDS011;1158;48.750;9.078;2022-12-18T04:07:38;46.22;;;18.88;;
2299;SDS011;1158;48.750;9.078;2022-12-18T04:10:06;45.95;;;18.00;;
2299;SDS011;1158;48.750;9.078;2022-12-18T04:12:36;39.08;;;17.27;;
2299;SDS011;1158;48.750;9.078;2022-12-18T04:15:03;46.63;;;17.95;;
2299;SDS011;1158;48.750;9.078;2022-12-18T04:17:32;35.97;;;15.35;;
2299;SDS011;1158;48.750;9.078;2022-12-18T04:19:59;41.10;;;16.58;;
2299;SDS011;1158;48.750;9.078;2022-12-18T04:22:26;42.05;;;16.65;;
2299;SDS011;1158;48.750;9.078;2022-12-18T04:24:53;42.35;;;17.45;;
2299;SDS011;1158;48.750;9.078;2022-12-18T04:27:19;40.35;;;16.08;;
2299;SDS011;1158;48.750;9.078;2022-12-18T04:29:46;43.88;;;18.27;;
2299;SDS011;1158;48.750;9.078;2022-12-18T04:32:13;46.88;;;17.58;;
2299;SDS011;1158;48.750;9.078;2022-12-18T04:34:41;44.28;;;16.63;;
2299;SDS011;1158;48.750;9.078;2022-12-18T04:37:08;51.22;;;16.90;;
2299;SDS011;1158;48.750;9.078;2022-12-18T04:39:34;42.10;;;17.75;;
2299;SDS011;1158;48.750;9.078;2022-12-18T04:42:01;43.40;;;17.42;;
2299;SDS011;1158;48.750;9.078;2022-12-18T04:44:28;38.15;;;15.75;;
2299;SDS011;1158;48.750;9.078;2022-12-18T04:46:55;54.13;;;19.55;;
2299;SDS011;1158;48.750;9.078;2022-12-18T04:49:22;49.90;;;17.83;;
2299;SDS011;1158;48.750;9.078;2022-12-18T04:51:50;39.05;;;17.77;;
2299;SDS011;1158;48.750;9.078;2022-12-18T04:54:18;47.63;;;17.35;;
2299;SDS011;1158;48.750;9.078;2022-12-18T04:56:44;42.58;;;16.80;;
2299;SDS011;1158;48.750;9.078;2022-12-18T04:59:11;41.42;;;17.33;;
2299;SDS011;1158;48.750;9.078;2022-12-18T05:01:38;49.80;;;21.48;;
2299;SDS011;1158;48.750;9.078;2022-12-18T05:04:05;42.42;;;18.02;;
2299;SDS011;1158;48.750;9.078;2022-12-18T05:06:31;47.40;;;20.23;;
2299;SDS011;1158;48.750;9.078;2022-12-18T05:08:59;46.85;;;18.20;;
2299;SDS011;1158;48.750;9.078;2022-12-18T05:11:26;39.47;;;17.83;;
2299;SDS011;1158;48.750;9.078;2022-12-18T05:13:56;35.75;;;18.02;;
2299;SDS011;1158;48.750;9.078;2022-12-18T05:16:22;53.78;;;19.50;;
2299;SDS011;1158;48.750;9.078;2022-12-18T05:18:49;38.15;;;17.77;;
2299;SDS011;1158;48.750;9.078;2022-12-18T05:21:16;51.08;;;18.80;;
2299;SDS011;1158;48.750;9.078;2022-12-18T05:23:42;48.50;;;19.27;;
2299;SDS011;1158;48.750;9.078;2022-12-18T05:26:12;43.08;;;17.15;;
2299;SDS011;1158;48.750;9.078;2022-12-18T05:28:41;43.40;;;16.55;;
2299;SDS011;1158;48.750;9.078;2022-12-18T05:31:08;41.67;;;16.50;;
2299;SDS011;1158;48.750;9.078;2022-12-18T05:33:36;45.55;;;17.17;;
2299;SDS011;1158;48.750;9.078;2022-12-18T05:36:04;32.25;;;14.70;;
2299;SDS011;1158;48.750;9.078;2022-12-18T05:38:33;32.10;;;14.90;;
2299;SDS011;1158;48.750;9.078;2022-12-18T05:41:01;39.03;;;15.38;;
2299;SDS011;1158;48.750;9.078;2022-12-18T05:43:29;40.92;;;16.65;;
2299;SDS011;1158;48.750;9.078;2022-12-18T05:45:56;48.35;;;17.77;;
2299;SDS011;1158;48.750;9.078;2022-12-18T05:48:23;41.60;;;17.30;;
2299;SDS011;1158;48.750;9.078;2022-12-18T05:50:50;42.80;;;18.25;;
2299;SDS011;1158;48.750;9.078;2022-12-18T05:53:18;44.78;;;16.23;;
2299;SDS011;1158;48.750;9.078;2022-12-18T05:55:45;38.92;;;16.15;;
2299;SDS011;1158;48.750;9.078;2022-12-18T05:58:13;43.50;;;16.23;;
2299;SDS011;1158;48.750;9.078;2022-12-18T06:00:42;47.35;;;19.48;;
2299;SDS011;1158;48.750;9.078;2022-12-18T06:03:10;53.33;;;19.52;;
2299;SDS011;1158;48.750;9.078;2022-12-18T06:05:39;49.25;;;18.48;;
2299;SDS011;1158;48.750;9.078;2022-12-18T06:08:07;48.05;;;16.98;;
2299;SDS011;1158;48.750;9.078;2022-12-18T06:10:34;46.00;;;15.60;;
2299;SDS011;1158;48.750;9.078;2022-12-18T06:13:01;39.30;;;15.50;;
2299;SDS011;1158;48.750;9.078;2022-12-18T06:15:28;43.22;;;17.35;;
2299;SDS011;1158;48.750;9.078;2022-12-18T06:17:56;44.70;;;17.30;;
2299;SDS011;1158;48.750;9.078;2022-12-18T06:20:23;43.30;;;16.98;;
2299;SDS011;1158;48.750;9.078;2022-12-18T06:22:50;36.90;;;16.10;;
2299;SDS011;1158;48.750;9.078;2022-12-18T06:25:17;42.03;;;15.98;;
2299;SDS011;1158;48.750;9.078;2022-12-18T06:27:44;41.00;;;17.53;;
2299;SDS011;1158;48.750;9.078;2022-12-18T06:30:13;54.13;;;17.45;;
2299;SDS011;1158;48.750;9.078;2022-12-18T06:32:40;42.38;;;16.00;;
2299;SDS011;1158;48.750;9.078;2022-12-18T06:35:08;34.85;;;16.95;;
2299;SDS011;1158;48.750;9.078;2022-12-18T06:37:35;47.67;;;17.48;;
2299;SDS011;1158;48.750;9.078;2022-12-18T06:40:02;40.30;;;15.80;;
2299;SDS011;1158;48.750;9.078;2022-12-18T06:42:30;35.33;;;14.90;;
2299;SDS011;1158;48.750;9.078;2022-12-18T06:44:57;30.15;;;13.60;;
2299;SDS011;1158;48.750;9.078;2022-12-18T06:47:23;43.13;;;16.13;;
2299;SDS011;1158;48.750;9.078;2022-12-18T06:49:50;36.53;;;14.77;;
2299;SDS011;1158;48.750;9.078;2022-12-18T06:52:18;30.88;;;14.13;;
2299;SDS011;1158;48.750;9.078;2022-12-18T06:54:45;33.75;;;15.80;;
2299;SDS011;1158;48.750;9.078;2022-12-18T06:57:12;40.58;;;16.00;;
2299;SDS011;1158;48.750;9.078;2022-12-18T06:59:38;30.92;;;13.90;;
2299;SDS011;1158;48.750;9.078;2022-12-18T07:02:05;36.90;;;14.50;;
2299;SDS011;1158;48.750;9.078;2022-12-18T07:04:32;26.85;;;12.30;;
2299;SDS011;1158;48.750;9.078;2022-12-18T07:06:59;30.45;;;12.73;;
2299;SDS011;1158;48.750;9.078;2022-12-18T07:09:27;33.78;;;13.32;;
2299;SDS011;1158;48.750;9.078;2022-12-18T07:11:57;26.65;;;12.10;;
2299;SDS011;1158;48.750;9.078;2022-12-18T07:14:23;39.60;;;14.57;;
2299;SDS011;1158;48.750;9.078;2022-12-18T07:16:50;33.95;;;13.13;;
2299;SDS011;1158;48.750;9.078;2022-12-18T07:19:17;33.72;;;13.48;;
2299;SDS011;1158;48.750;9.078;2022-12-18T07:21:43;33.70;;;12.98;;
2299;SDS011;1158;48.750;9.078;2022-12-18T07:24:11;34.05;;;14.63;;
2299;SDS011;1158;48.750;9.078;2022-12-18T07:26:39;41.50;;;15.82;;
2299;SDS011;1158;48.750;9.078;2022-12-18T07:29:06;38.20;;;13.80;;
2299;SDS011;1158;48.750;9.078;2022-12-18T07:31:32;47.22;;;15.20;;
2299;SDS011;1158;48.750;9.078;2022-12-18T07:33:59;35.60;;;13.57;;
2299;SDS011;1158;48.750;9.078;2022-12-18T07:36:26;34.22;;;14.50;;
2299;SDS011;1158;48.750;9.078;2022-12-18T07:38:52;33.65;;;12.75;;
2299;SDS011;1158;48.750;9.078;2022-12-18T07:41:19;36.63;;;15.30;;
2299;SDS011;1158;48.750;9.078;2022-12-18T07:43:48;35.33;;;14.98;;
2299;SDS011;1158;48.750;9.078;2022-12-18T07:46:15;35.25;;;14.40;;
2299;SDS011;1158;48.750;9.078;2022-12-18T07:48:42;33.60;;;14.18;;
2299;SDS011;1158;48.750;9.078;2022-12-18T07:51:09;32.85;;;14.68;;
2299;SDS011;1158;48.750;9.078;2022-12-18T07:53:37;41.80;;;15.13;;
2299;SDS011;1158;48.750;9.078;2022-12-18T07:56:05;34.00;;;15.48;;
2299;SDS011;1158;48.750;9.078;2022-12-18T07:58:34;41.85;;;15.68;;
2299;SDS011;1158;48.750;9.078;2022-12-18T08:01:03;40.35;;;16.55;;
2299;SDS011;1158;48.750;9.078;2022-12-18T08:03:31;36.58;;;16.80;;
2299;SDS011;1158;48.750;9.078;2022-12-18T08:05:58;41.05;;;15.63;;
2299;SDS011;1158;48.750;9.078;2022-12-18T08:08:26;40.17;;;14.70;;
2299;SDS011;1158;48.750;9.078;2022-12-18T08:10:53;29.55;;;12.93;;
2299;SDS011;1158;48.750;9.078;2022-12-18T08:13:20;30.80;;;13.13;;
2299;SDS011;1158;48.750;9.078;2022-12-18T08:15:54;39.90;;;16.33;;
2299;SDS011;1158;48.750;9.078;2022-12-18T08:18:24;37.25;;;15.02;;
2299;SDS011;1158;48.750;9.078;2022-12-18T08:20:51;36.97;;;15.67;;
2299;SDS011;1158;48.750;9.078;2022-12-18T08:23:18;29.45;;;13.20;;
2299;SDS011;1158;48.750;9.078;2022-12-18T08:25:45;36.50;;;15.50;;
2299;SDS011;1158;48.750;9.078;2022-12-18T08:28:12;41.13;;;15.30;;
2299;SDS011;1158;48.750;9.078;2022-12-18T08:30:39;35.07;;;15.60;;
2299;SDS011;1158;48.750;9.078;2022-12-18T08:33:06;34.43;;;15.50;;
2299;SDS011;1158;48.750;9.078;2022-12-18T08:35:35;33.30;;;14.97;;
2299;SDS011;1158;48.750;9.078;2022-12-18T08:38:02;26.40;;;14.53;;
2299;SDS011;1158;48.750;9.078;2022-12-18T08:40:29;27.73;;;14.33;;
2299;SDS011;1158;48.750;9.078;2022-12-18T08:42:56;32.37;;;16.73;;
2299;SDS011;1158;48.750;9.078;2022-12-18T08:45:40;33.60;;;16.03;;
2299;SDS011;1158;48.750;9.078;2022-12-18T08:48:07;30.77;;;17.40;;
2299;SDS011;1158;48.750;9.078;2022-12-18T08:50:34;25.27;;;15.10;;
2299;SDS011;1158;48.750;9.078;2022-12-18T08:53:02;33.93;;;16.33;;
2299;SDS011;1158;48.750;9.078;2022-12-18T08:55:29;30.70;;;18.43;;
2299;SDS011;1158;48.750;9.078;2022-12-18T08:57:56;27.23;;;16.00;;
2299;SDS011;1158;48.750;9.078;2022-12-18T09:00:23;31.67;;;17.60;;
2299;SDS011;1158;48.750;9.078;2022-12-18T09:02:49;37.33;;;19.57;;
2299;SDS011;1158;48.750;9.078;2022-12-18T09:05:16;35.70;;;18.53;;
2299;SDS011;1158;48.750;9.078;2022-12-18T09:07:45;32.60;;;18.73;;
2299;SDS011;1158;48.750;9.078;2022-12-18T09:10:11;42.67;;;20.77;;
2299;SDS011;1158;48.750;9.078;2022-12-18T09:12:38;33.93;;;18.07;;
2299;SDS011;1158;48.750;9.078;2022-12-18T09:15:05;34.50;;;18.60;;
2299;SDS011;1158;48.750;9.078;2022-12-18T09:17:32;35.60;;;18.80;;
2299;SDS011;1158;48.750;9.078;2022-12-18T09:19:59;29.97;;;18.73;;
2299;SDS011;1158;48.750;9.078;2022-12-18T09:22:26;35.77;;;19.50;;
2299;SDS011;1158;48.750;9.078;2022-12-18T09:24:54;37.43;;;19.10;;
2299;SDS011;1158;48.750;9.078;2022-12-18T09:27:21;33.27;;;19.13;;
2299;SDS011;1158;48.750;9.078;2022-12-18T09:29:47;37.00;;;18.60;;
2299;SDS011;1158;48.750;9.078;2022-12-18T09:32:14;38.00;;;19.47;;
2299;SDS011;1158;48.750;9.078;2022-12-18T09:34:41;35.33;;;20.73;;
2299;SDS011;1158;48.750;9.078;2022-12-18T09:37:08;35.77;;;18.70;;
2299;SDS011;1158;48.750;9.078;2022-12-18T09:39:34;38.73;;;19.20;;
2299;SDS011;1158;48.750;9.078;2022-12-18T09:42:03;40.40;;;19.90;;
2299;SDS011;1158;48.750;9.078;2022-12-18T09:44:32;40.10;;;20.20;;
2299;SDS011;1158;48.750;9.078;2022-12-18T09:47:06;36.57;;;18.50;;
2299;SDS011;1158;48.750;9.078;2022-12-18T09:49:38;42.30;;;20.00;;
2299;SDS011;1158;48.750;9.078;2022-12-18T09:52:09;38.93;;;17.83;;
2299;SDS011;1158;48.750;9.078;2022-12-18T09:54:40;43.60;;;19.90;;
2299;SDS011;1158;48.750;9.078;2022-12-18T09:57:12;35.23;;;17.47;;
2299;SDS011;1158;48.750;9.078;2022-12-18T09:59:41;43.17;;;18.27;;
2299;SDS011;1158;48.750;9.078;2022-12-18T10:02:16;39.27;;;19.87;;
2299;SDS011;1158;48.750;9.078;2022-12-18T10:04:47;35.60;;;18.37;;
2299;SDS011;1158;48.750;9.078;2022-12-18T10:07:29;43.90;;;20.40;;
2299;SDS011;1158;48.750;9.078;2022-12-18T10:10:05;40.57;;;18.90;;
2299;SDS011;1158;48.750;9.078;2022-12-18T10:12:42;39.63;;;19.63;;
2299;SDS011;1158;48.750;9.078;2022-12-18T10:15:18;42.20;;;20.37;;
2299;SDS011;1158;48.750;9.078;2022-12-18T10:17:51;44.47;;;19.97;;
2299;SDS011;1158;48.750;9.078;2022-12-18T10:20:27;40.23;;;19.63;;
2299;SDS011;1158;48.750;9.078;2022-12-18T10:23:00;37.80;;;17.97;;
2299;SDS011;1158;48.750;9.078;2022-12-18T10:25:34;40.23;;;17.77;;
2299;SDS011;1158;48.750;9.078;2022-12-18T10:28:10;37.83;;;18.33;;
2299;SDS011;1158;48.750;9.078;2022-12-18T10:30:39;37.80;;;18.40;;
2299;SDS011;1158;48.750;9.078;2022-12-18T10:33:08;44.03;;;18.60;;
2299;SDS011;1158;48.750;9.078;2022-12-18T10:35:37;35.10;;;17.30;;
2299;SDS011;1158;48.750;9.078;2022-12-18T10:38:20;40.93;;;18.13;;
2299;SDS011;1158;48.750;9.078;2022-12-18T10:40:49;40.67;;;17.67;;
2299;SDS011;1158;48.750;9.078;2022-12-18T10:43:21;38.10;;;16.77;;
2299;SDS011;1158;48.750;9.078;2022-12-18T10:45:58;40.23;;;18.00;;
2299;SDS011;1158;48.750;9.078;2022-12-18T10:48:27;39.60;;;18.10;;
2299;SDS011;1158;48.750;9.078;2022-12-18T10:50:54;34.87;;;16.67;;
2299;SDS011;1158;48.750;9.078;2022-12-18T10:53:23;36.27;;;16.20;;
2299;SDS011;1158;48.750;9.078;2022-12-18T10:55:51;34.10;;;18.40;;
2299;SDS011;1158;48.750;9.078;2022-12-18T10:58:23;45.50;;;19.80;;
2299;SDS011;1158;48.750;9.078;2022-12-18T11:01:01;42.73;;;18.27;;
2299;SDS011;1158;48.750;9.078;2022-12-18T11:03:31;37.87;;;17.30;;
2299;SDS011;1158;48.750;9.078;2022-12-18T11:06:02;47.20;;;20.70;;
2299;SDS011;1158;48.750;9.078;2022-12-18T11:08:30;45.30;;;20.13;;
2299;SDS011;1158;48.750;9.078;2022-12-18T11:10:57;41.53;;;18.53;;
2299;SDS011;1158;48.750;9.078;2022-12-18T11:13:26;43.10;;;19.10;;
2299;SDS011;1158;48.750;9.078;2022-12-18T11:15:53;38.20;;;18.00;;
2299;SDS011;1158;48.750;9.078;2022-12-18T11:18:22;41.60;;;18.00;;
2299;SDS011;1158;48.750;9.078;2022-12-18T11:20:53;55.37;;;19.13;;
2299;SDS011;1158;48.750;9.078;2022-12-18T11:23:23;40.87;;;18.40;;
2299;SDS011;1158;48.750;9.078;2022-12-18T11:25:51;37.27;;;19.00;;
2299;SDS011;1158;48.750;9.078;2022-12-18T11:28:28;44.43;;;19.50;;
2299;SDS011;1158;48.750;9.078;2022-12-18T11:31:09;38.87;;;19.07;;
2299;SDS011;1158;48.750;9.078;2022-12-18T11:33:46;41.43;;;18.07;;
2299;SDS011;1158;48.750;9.078;2022-12-18T11:36:18;40.87;;;18.30;;
2299;SDS011;1158;48.750;9.078;2022-12-18T11:38:47;39.87;;;18.50;;
2299;SDS011;1158;48.750;9.078;2022-12-18T11:41:19;38.83;;;18.50;;
2299;SDS011;1158;48.750;9.078;2022-12-18T11:44:13;44.07;;;18.77;;
2299;SDS011;1158;48.750;9.078;2022-12-18T11:46:45;42.37;;;19.90;;
2299;SDS011;1158;48.750;9.078;2022-12-18T11:49:17;39.27;;;20.80;;
2299;SDS011;1158;48.750;9.078;2022-12-18T11:51:48;38.33;;;19.50;;
2299;SDS011;1158;48.750;9.078;2022-12-18T11:54:19;43.80;;;20.80;;
2299;SDS011;1158;48.750;9.078;2022-12-18T11:56:48;36.57;;;18.33;;
2299;SDS011;1158;48.750;9.078;2022-12-18T11:59:20;43.00;;;21.17;;
2299;SDS011;1158;48.750;9.078;2022-12-18T12:01:54;37.00;;;19.37;;
2299;SDS011;1158;48.750;9.078;2022-12-18T12:04:41;45.10;;;21.60;;
2299;SDS011;1158;48.750;9.078;2022-12-18T12:07:21;41.07;;;19.57;;
2299;SDS011;1158;48.750;9.078;2022-12-18T12:10:01;37.17;;;21.30;;
2299;SDS011;1158;48.750;9.078;2022-12-18T12:12:41;40.33;;;20.03;;
2299;SDS011;1158;48.750;9.078;2022-12-18T12:15:23;35.53;;;18.37;;
2299;SDS011;1158;48.750;9.078;2022-12-18T12:17:59;41.30;;;19.67;;
2299;SDS011;1158;48.750;9.078;2022-12-18T12:20:35;30.80;;;14.87;;
2299;SDS011;1158;48.750;9.078;2022-12-18T12:23:12;45.03;;;21.30;;
2299;SDS011;1158;48.750;9.078;2022-12-18T12:25:49;44.23;;;21.60;;
2299;SDS011;1158;48.750;9.078;2022-12-18T12:28:23;43.20;;;21.40;;
2299;SDS011;1158;48.750;9.078;2022-12-18T12:31:09;45.43;;;21.40;;
2299;SDS011;1158;48.750;9.078;2022-12-18T12:33:45;43.47;;;21.63;;
2299;SDS011;1158;48.750;9.078;2022-12-18T12:36:18;44.10;;;22.33;;
2299;SDS011;1158;48.750;9.078;2022-12-18T12:38:53;50.97;;;22.80;;
2299;SDS011;1158;48.750;9.078;2022-12-18T12:41:23;50.47;;;25.47;;
2299;SDS011;1158;48.750;9.078;2022-12-18T12:44:13;43.50;;;21.63;;
2299;SDS011;1158;48.750;9.078;2022-12-18T12:46:46;46.93;;;21.73;;
2299;SDS011;1158;48.750;9.078;2022-12-18T12:49:17;51.63;;;22.57;;
2299;SDS011;1158;48.750;9.078;2022-12-18T12:51:49;47.30;;;22.13;;
2299;SDS011;1158;48.750;9.078;2022-12-18T12:54:24;44.30;;;22.07;;
2299;SDS011;1158;48.750;9.078;2022-12-18T12:56:57;49.00;;;22.30;;
2299;SDS011;1158;48.750;9.078;2022-12-18T12:59:29;44.37;;;22.27;;
2299;SDS011;1158;48.750;9.078;2022-12-18T13:02:04;47.13;;;22.97;;
2299;SDS011;1158;48.750;9.078;2022-12-18T13:04:39;49.57;;;22.77;;
2299;SDS011;1158;48.750;9.078;2022-12-18T13:07:12;47.43;;;23.30;;
2299;SDS011;1158;48.750;9.078;2022-12-18T13:12:52;43.53;;;21.20;;
2299;SDS011;1158;48.750;9.078;2022-12-18T13:15:22;41.33;;;20.70;;
2299;SDS011;1158;48.750;9.078;2022-12-18T13:18:09;44.60;;;22.97;;
2299;SDS011;1158;48.750;9.078;2022-12-18T13:20:41;49.13;;;23.07;;
2299;SDS011;1158;48.750;9.078;2022-12-18T13:23:19;45.70;;;22.17;;
2299;SDS011;1158;48.750;9.078;2022-12-18T13:25:52;50.10;;;24.67;;
2299;SDS011;1158;48.750;9.078;2022-12-18T13:28:20;44.07;;;22.37;;
2299;SDS011;1158;48.750;9.078;2022-12-18T13:30:54;46.53;;;22.67;;
2299;SDS011;1158;48.750;9.078;2022-12-18T13:33:39;47.03;;;21.87;;
2299;SDS011;1158;48.750;9.078;2022-12-18T13:36:14;44.67;;;22.33;;
2299;SDS011;1158;48.750;9.078;2022-12-18T13:41:47;52.10;;;23.87;;
2299;SDS011;1158;48.750;9.078;2022-12-18T13:44:20;50.50;;;24.70;;
2299;SDS011;1158;48.750;9.078;2022-12-18T13:46:57;52.67;;;24.40;;
2299;SDS011;1158;48.750;9.078;2022-12-18T13:49:27;57.33;;;25.87;;
2299;SDS011;1158;48.750;9.078;2022-12-18T13:52:02;49.30;;;25.03;;
2299;SDS011;1158;48.750;9.078;2022-12-18T13:54:40;58.23;;;26.17;;
2299;SDS011;1158;48.750;9.078;2022-12-18T13:57:23;49.60;;;25.13;;
2299;SDS011;1158;48.750;9.078;2022-12-18T13:59:52;63.57;;;27.03;;
2299;SDS011;1158;48.750;9.078;2022-12-18T14:02:20;52.57;;;25.17;;
2299;SDS011;1158;48.750;9.078;2022-12-18T14:04:50;57.40;;;25.37;;
2299;SDS011;1158;48.750;9.078;2022-12-18T14:07:18;50.17;;;25.50;;
2299;SDS011;1158;48.750;9.078;2022-12-18T14:09:47;55.40;;;25.27;;
2299;SDS011;1158;48.750;9.078;2022-12-18T14:12:17;53.43;;;24.10;;
2299;SDS011;1158;48.750;9.078;2022-12-18T14:15:05;52.20;;;25.63;;
2299;SDS011;1158;48.750;9.078;2022-12-18T14:17:41;51.23;;;24.70;;
2299;SDS011;1158;48.750;9.078;2022-12-18T14:20:13;49.00;;;22.27;;
2299;SDS011;1158;48.750;9.078;2022-12-18T14:22:42;48.40;;;21.73;;
2299;SDS011;1158;48.750;9.078;2022-12-18T14:25:14;45.23;;;21.33;;
2299;SDS011;1158;48.750;9.078;2022-12-18T14:27:43;53.40;;;22.60;;
2299;SDS011;1158;48.750;9.078;2022-12-18T14:30:24;53.50;;;22.07;;
2299;SDS011;1158;48.750;9.078;2022-12-18T14:32:59;49.43;;;21.63;;
2299;SDS011;1158;48.750;9.078;2022-12-18T14:35:28;54.80;;;24.47;;
2299;SDS011;1158;48.750;9.078;2022-12-18T14:40:45;54.83;;;24.50;;
2299;SDS011;1158;48.750;9.078;2022-12-18T14:43:12;49.10;;;22.20;;
2299;SDS011;1158;48.750;9.078;2022-12-18T14:45:39;48.60;;;22.17;;
2299;SDS011;1158;48.750;9.078;2022-12-18T14:48:07;45.60;;;22.00;;
2299;SDS011;1158;48.750;9.078;2022-12-18T14:50:37;49.53;;;22.20;;
2299;SDS011;1158;48.750;9.078;2022-12-18T14:53:04;54.67;;;23.50;;
2299;SDS011;1158;48.750;9.078;2022-12-18T14:55:31;52.33;;;20.67;;
2299;SDS011;1158;48.750;9.078;2022-12-18T14:57:57;57.10;;;24.70;;
2299;SDS011;1158;48.750;9.078;2022-12-18T15:00:25;55.03;;;22.70;;
2299;SDS011;1158;48.750;9.078;2022-12-18T15:02:52;53.10;;;24.00;;
2299;SDS011;1158;48.750;9.078;2022-12-18T15:05:23;54.50;;;25.60;;
2299;SDS011;1158;48.750;9.078;2022-12-18T15:07:54;58.23;;;23.40;;
2299;SDS011;1158;48.750;9.078;2022-12-18T15:10:22;49.97;;;22.00;;
2299;SDS011;1158;48.750;9.078;2022-12-18T15:13:05;51.50;;;25.30;;
2299;SDS011;1158;48.750;9.078;2022-12-18T15:15:44;51.50;;;22.10;;
2299;SDS011;1158;48.750;9.078;2022-12-18T15:18:12;52.87;;;24.20;;